Time;durP1;ratioP1;P1;durP2;ratioP2;P2;SDS_P1;SDS_P2;PMS_P1;PMS_P2;Temp;Humidity;BMP_temperature;BMP_pressure;BME280_temperature;BME280_humidity;BME280_pressure;Samples;Min_cycle;Max_cycle;Signal;HPM_P1;HPM_P2
2022/12/29 00:01:20;;;;;;;10.23;5.28;;;7.60;99.90;;;;;;5031399;28;20038;-68
2022/12/29 00:03:46;;;;;;;7.80;4.95;;;7.60;99.90;;;;;;5030052;28;20716;-68
2022/12/29 00:06:12;;;;;;;8.40;5.18;;;7.60;99.90;;;;;;5028564;28;20675;-68
2022/12/29 00:08:40;;;;;;;10.30;5.22;;;7.70;99.90;;;;;;5027324;28;20120;-68
2022/12/29 00:11:17;;;;;;;12.05;4.70;;;7.70;99.90;;;;;;5029299;28;20041;-68
2022/12/29 00:16:28;;;;;;;9.45;5.18;;;7.80;99.90;;;;;;5026872;28;20033;-68
2022/12/29 00:18:54;;;;;;;8.35;4.88;;;7.80;99.90;;;;;;5025926;28;20041;-69
2022/12/29 00:35:29;;;;;;;8.68;5.53;;;7.90;99.90;;;;;;5022295;28;20076;-68
2022/12/29 00:46:10;;;;;;;11.05;4.95;;;8.00;99.90;;;;;;5024974;28;20047;-68
2022/12/29 00:51:20;;;;;;;7.25;4.35;;;8.00;99.90;;;;;;5028103;28;20040;-68
2022/12/29 00:53:45;;;;;;;6.53;4.82;;;8.00;99.90;;;;;;5027150;28;20038;-68
2022/12/29 00:56:11;;;;;;;7.65;4.93;;;8.00;99.90;;;;;;5031007;28;20052;-68
2022/12/29 00:58:36;;;;;;;7.65;4.72;;;8.00;99.90;;;;;;5028078;28;20033;-68
2022/12/29 01:01:03;;;;;;;7.45;4.45;;;8.00;99.90;;;;;;5030515;28;20112;-68
2022/12/29 01:03:29;;;;;;;8.05;4.43;;;8.00;99.90;;;;;;5019707;28;20045;-71
2022/12/29 01:05:55;;;;;;;6.55;4.60;;;8.00;99.90;;;;;;5029536;28;20037;-68
2022/12/29 01:08:20;;;;;;;8.25;5.13;;;8.10;99.90;;;;;;5030691;28;20407;-69
2022/12/29 01:10:45;;;;;;;8.05;4.55;;;8.00;99.90;;;;;;5026470;28;20041;-68
2022/12/29 01:13:11;;;;;;;6.45;4.75;;;8.10;99.90;;;;;;5030399;28;20030;-68
2022/12/29 01:15:36;;;;;;;9.43;4.80;;;8.10;99.90;;;;;;5028026;28;20152;-70
2022/12/29 01:18:02;;;;;;;6.70;4.63;;;8.10;99.90;;;;;;5028754;28;20041;-69
2022/12/29 01:20:28;;;;;;;10.07;4.93;;;8.10;99.90;;;;;;5028426;28;20535;-68
2022/12/29 01:22:54;;;;;;;8.32;5.40;;;8.10;99.90;;;;;;5026758;28;20466;-70
2022/12/29 01:25:19;;;;;;;8.13;5.03;;;8.10;99.90;;;;;;5032182;28;20060;-67
2022/12/29 01:27:45;;;;;;;9.52;5.30;;;8.20;99.90;;;;;;5025274;28;20038;-68
2022/12/29 01:30:11;;;;;;;8.27;5.05;;;8.20;99.90;;;;;;5030209;28;20112;-68
2022/12/29 01:32:36;;;;;;;8.07;5.05;;;8.30;99.90;;;;;;5025738;28;20052;-68
2022/12/29 01:35:02;;;;;;;10.80;5.57;;;8.30;99.90;;;;;;5023482;28;20581;-69
2022/12/29 01:37:28;;;;;;;6.78;5.18;;;8.30;99.90;;;;;;5022818;28;20034;-68
2022/12/29 01:39:53;;;;;;;7.95;5.05;;;8.40;99.90;;;;;;5032874;28;20056;-68
2022/12/29 01:42:23;;;;;;;7.10;4.63;;;8.40;99.90;;;;;;5031841;28;20097;-67
2022/12/29 01:44:55;;;;;;;6.50;4.67;;;8.40;99.90;;;;;;5033767;28;20090;-69
2022/12/29 01:47:33;;;;;;;6.90;4.80;;;8.40;99.90;;;;;;5029315;28;20284;-68
2022/12/29 01:50:06;;;;;;;6.43;4.38;;;8.50;99.90;;;;;;5025900;28;20032;-68
2022/12/29 01:52:35;;;;;;;8.30;4.50;;;8.50;99.70;;;;;;5027861;28;20025;-69
2022/12/29 01:55:03;;;;;;;9.25;4.30;;;8.60;99.60;;;;;;5029546;28;20420;-68
2022/12/29 01:57:34;;;;;;;6.95;4.53;;;8.60;99.40;;;;;;5031325;28;20038;-68
2022/12/29 02:00:09;;;;;;;6.95;4.40;;;8.60;99.40;;;;;;5028502;28;20037;-68
2022/12/29 02:02:35;;;;;;;5.38;3.75;;;8.60;99.50;;;;;;5032842;28;20040;-69
2022/12/29 02:05:08;;;;;;;5.63;3.70;;;8.60;99.50;;;;;;5030493;28;20029;-68
2022/12/29 02:07:34;;;;;;;8.48;4.28;;;8.70;99.40;;;;;;5029068;28;20029;-68
2022/12/29 02:10:01;;;;;;;6.13;4.10;;;8.70;99.40;;;;;;5024028;28;20033;-67
2022/12/29 02:12:27;;;;;;;7.38;4.57;;;8.60;99.50;;;;;;5023727;28;20044;-68
2022/12/29 02:14:58;;;;;;;6.13;4.25;;;8.60;99.50;;;;;;5031270;28;20037;-69
2022/12/29 02:17:38;;;;;;;7.72;4.30;;;8.60;99.70;;;;;;5026954;28;20121;-69
2022/12/29 02:20:28;;;;;;;5.25;3.60;;;8.60;99.60;;;;;;5028153;28;20069;-70
2022/12/29 02:23:32;;;;;;;6.13;4.10;;;8.60;99.70;;;;;;5026709;28;20061;-69
2022/12/29 02:26:18;;;;;;;6.30;3.83;;;8.60;99.70;;;;;;5028951;28;20284;-68
2022/12/29 02:29:12;;;;;;;5.60;3.45;;;8.70;99.70;;;;;;5028484;28;20438;-68
2022/12/29 02:31:52;;;;;;;6.30;4.00;;;8.70;99.50;;;;;;5023269;28;20037;-69
2022/12/29 02:34:37;;;;;;;6.32;4.00;;;8.70;99.40;;;;;;5024105;28;20022;-69
2022/12/29 02:37:17;;;;;;;5.20;3.38;;;8.70;99.40;;;;;;5023941;28;20036;-68
2022/12/29 02:39:52;;;;;;;5.20;3.72;;;8.80;99.30;;;;;;5024824;28;20029;-68
2022/12/29 02:42:28;;;;;;;4.80;3.55;;;8.80;99.30;;;;;;5026105;28;20240;-68
2022/12/29 02:45:18;;;;;;;5.53;3.22;;;8.80;99.30;;;;;;5027422;28;20399;-69
2022/12/29 02:48:03;;;;;;;4.93;3.35;;;8.70;99.20;;;;;;5027844;28;20385;-68
2022/12/29 02:50:34;;;;;;;4.60;3.30;;;8.80;99.30;;;;;;5026704;28;20397;-68
2022/12/29 02:53:13;;;;;;;6.25;3.22;;;8.80;99.20;;;;;;5027765;28;20043;-68
2022/12/29 02:55:41;;;;;;;5.35;3.25;;;8.90;99.10;;;;;;5027932;28;20116;-68
2022/12/29 02:58:21;;;;;;;6.35;3.50;;;8.90;98.90;;;;;;5019143;28;20422;-69
2022/12/29 03:01:08;;;;;;;6.97;2.97;;;8.80;98.90;;;;;;5029596;28;20470;-68
2022/12/29 03:03:59;;;;;;;4.40;2.80;;;8.90;99.00;;;;;;5029811;28;20033;-69
2022/12/29 03:06:51;;;;;;;3.75;2.72;;;8.80;99.00;;;;;;5029010;28;20057;-68
2022/12/29 03:09:27;;;;;;;5.30;2.78;;;8.90;98.70;;;;;;5024214;28;20421;-70
2022/12/29 03:12:09;;;;;;;5.50;3.10;;;9.00;98.30;;;;;;5027698;28;20034;-68
2022/12/29 03:18:09;;;;;;;4.13;2.78;;;8.90;98.60;;;;;;5030073;28;20046;-69
2022/12/29 03:20:55;;;;;;;3.70;2.53;;;9.00;98.30;;;;;;5016149;28;20029;-68
2022/12/29 03:23:23;;;;;;;3.45;2.17;;;8.90;98.20;;;;;;5029949;28;20041;-68
2022/12/29 03:25:52;;;;;;;3.72;2.38;;;9.00;98.30;;;;;;5031308;28;20091;-68
2022/12/29 03:28:40;;;;;;;4.07;2.25;;;9.10;98.30;;;;;;5022513;28;20076;-68
2022/12/29 03:31:08;;;;;;;4.63;2.58;;;9.10;98.10;;;;;;5023667;28;20030;-67
2022/12/29 03:33:38;;;;;;;3.60;2.45;;;9.10;98.10;;;;;;5026062;28;20045;-69
2022/12/29 03:36:08;;;;;;;4.65;2.40;;;9.10;98.10;;;;;;5024405;28;20025;-69
2022/12/29 03:38:42;;;;;;;3.67;2.28;;;9.10;98.10;;;;;;5027126;28;20481;-68
2022/12/29 03:41:11;;;;;;;3.13;2.00;;;9.10;98.20;;;;;;5025925;28;20117;-67
2022/12/29 03:43:37;;;;;;;2.88;2.20;;;9.10;98.10;;;;;;5029380;28;20057;-69
2022/12/29 03:46:02;;;;;;;2.97;1.90;;;9.20;98.00;;;;;;5022409;28;20115;-67
2022/12/29 03:48:28;;;;;;;4.40;1.95;;;9.20;98.00;;;;;;5024056;28;20037;-68
2022/12/29 03:50:53;;;;;;;2.53;1.80;;;9.20;97.90;;;;;;5025492;28;20029;-68
2022/12/29 03:53:19;;;;;;;3.30;1.98;;;9.30;97.60;;;;;;5023941;28;20523;-68
2022/12/29 03:55:44;;;;;;;2.08;1.63;;;9.10;97.80;;;;;;5028048;28;20040;-68
2022/12/29 03:58:10;;;;;;;2.30;1.67;;;9.10;97.90;;;;;;5029420;28;20033;-69
2022/12/29 04:00:35;;;;;;;2.88;1.75;;;9.10;98.00;;;;;;5027415;28;20087;-69
2022/12/29 04:03:00;;;;;;;3.35;1.70;;;9.10;98.00;;;;;;5023572;28;20047;-68
2022/12/29 04:05:26;;;;;;;2.28;1.52;;;9.10;98.10;;;;;;5026999;28;20103;-68
2022/12/29 04:07:52;;;;;;;1.45;1.20;;;9.10;98.10;;;;;;5021588;28;20040;-67
2022/12/29 04:10:17;;;;;;;2.13;1.63;;;9.20;98.30;;;;;;5024385;28;20056;-68
2022/12/29 04:12:43;;;;;;;1.90;1.50;;;9.10;98.40;;;;;;5026166;28;20037;-68
2022/12/29 04:15:09;;;;;;;3.08;1.33;;;9.20;98.60;;;;;;5025352;28;20112;-69
2022/12/29 04:17:34;;;;;;;2.38;1.70;;;9.30;98.50;;;;;;5026246;28;20080;-69
2022/12/29 04:22:44;;;;;;;2.85;1.80;;;9.40;98.40;;;;;;5022218;28;20138;-69
2022/12/29 04:25:10;;;;;;;2.95;1.30;;;9.40;98.50;;;;;;5026865;28;20055;-69
2022/12/29 04:27:35;;;;;;;2.55;1.40;;;9.30;98.50;;;;;;5028276;28;20469;-68
2022/12/29 04:30:01;;;;;;;1.00;0.90;;;9.30;98.80;;;;;;5024100;28;20048;-68
2022/12/29 04:32:26;;;;;;;1.58;1.17;;;9.40;99.00;;;;;;5025584;28;20033;-69
2022/12/29 04:34:52;;;;;;;2.65;1.10;;;9.40;99.20;;;;;;5019106;28;20064;-68
2022/12/29 04:37:17;;;;;;;1.48;1.15;;;9.40;99.30;;;;;;5026583;28;20029;-67
2022/12/29 04:39:43;;;;;;;2.05;1.02;;;9.40;99.40;;;;;;5028410;28;20037;-68
2022/12/29 04:42:08;;;;;;;1.52;1.05;;;9.40;99.70;;;;;;5024836;28;20037;-69
2022/12/29 04:44:34;;;;;;;1.70;1.17;;;9.40;99.80;;;;;;5028815;28;20037;-68
2022/12/29 04:46:59;;;;;;;4.47;1.60;;;9.40;99.90;;;;;;5017025;28;20030;-68
2022/12/29 04:49:25;;;;;;;2.78;1.40;;;9.40;99.90;;;;;;5024966;28;20515;-68
2022/12/29 04:51:50;;;;;;;2.45;1.38;;;9.30;99.90;;;;;;5019656;28;20811;-68
2022/12/29 04:54:15;;;;;;;2.65;1.60;;;9.30;99.90;;;;;;5020555;28;20037;-68
2022/12/29 04:56:41;;;;;;;3.22;1.77;;;9.40;99.90;;;;;;5028782;28;20033;-68
2022/12/29 04:59:06;;;;;;;2.03;1.50;;;9.40;99.90;;;;;;5020609;28;20389;-67
2022/12/29 05:01:32;;;;;;;2.78;1.70;;;9.30;99.90;;;;;;5022255;28;20084;-68
2022/12/29 05:03:57;;;;;;;2.45;1.70;;;9.30;99.90;;;;;;5036012;28;20120;-68
2022/12/29 05:06:23;;;;;;;4.90;1.40;;;9.30;99.90;;;;;;5026733;28;20433;-69
2022/12/29 05:08:48;;;;;;;4.65;1.63;;;9.30;99.90;;;;;;5026229;28;20067;-67
2022/12/29 05:11:14;;;;;;;1.95;1.30;;;9.40;99.90;;;;;;5029132;28;20034;-67
2022/12/29 05:13:39;;;;;;;1.67;1.38;;;9.30;99.90;;;;;;5024460;28;20360;-67
2022/12/29 05:16:05;;;;;;;1.95;1.17;;;9.30;99.90;;;;;;5024467;28;20047;-68
2022/12/29 05:18:30;;;;;;;2.08;1.38;;;9.40;99.90;;;;;;5029068;28;20091;-69
2022/12/29 05:20:56;;;;;;;2.22;1.38;;;9.40;99.90;;;;;;5026539;28;20033;-68
2022/12/29 05:23:21;;;;;;;2.55;1.52;;;9.40;99.90;;;;;;5028740;28;20108;-67
2022/12/29 05:25:47;;;;;;;2.15;1.40;;;9.50;99.80;;;;;;5024004;28;20030;-68
2022/12/29 05:28:13;;;;;;;1.80;1.40;;;9.50;99.70;;;;;;5027973;28;20084;-70
2022/12/29 05:30:38;;;;;;;3.92;1.80;;;9.50;99.60;;;;;;5022532;28;20084;-70
2022/12/29 05:33:06;;;;;;;3.20;1.38;;;9.40;99.40;;;;;;5027542;28;20037;-70
2022/12/29 05:35:32;;;;;;;3.25;1.70;;;9.40;99.50;;;;;;5022185;28;20623;-69
2022/12/29 05:37:57;;;;;;;3.20;1.58;;;9.50;99.10;;;;;;5024882;28;20083;-69
2022/12/29 05:40:23;;;;;;;4.38;1.80;;;9.60;98.90;;;;;;5026457;28;20041;-70
2022/12/29 05:42:48;;;;;;;2.58;1.65;;;9.60;98.90;;;;;;5025769;28;20037;-71
2022/12/29 05:45:14;;;;;;;3.38;1.98;;;9.60;98.70;;;;;;5025128;28;20485;-70
2022/12/29 05:47:39;;;;;;;4.22;1.83;;;9.60;98.60;;;;;;5029664;28;20048;-72
2022/12/29 05:50:05;;;;;;;3.03;1.45;;;9.50;98.60;;;;;;5029358;28;20433;-70
2022/12/29 05:52:30;;;;;;;3.95;1.85;;;9.60;98.50;;;;;;5028764;28;20021;-69
2022/12/29 05:54:56;;;;;;;3.40;1.80;;;9.60;98.40;;;;;;5025186;28;20075;-69
2022/12/29 05:57:21;;;;;;;3.42;1.60;;;9.60;98.70;;;;;;5031078;28;20025;-71
2022/12/29 05:59:47;;;;;;;3.42;1.58;;;9.60;98.50;;;;;;5027633;28;20355;-69
2022/12/29 06:02:12;;;;;;;2.70;1.52;;;9.70;97.90;;;;;;5027623;28;20072;-70
2022/12/29 06:04:38;;;;;;;3.88;1.90;;;9.60;98.00;;;;;;5027733;28;20034;-69
2022/12/29 06:07:03;;;;;;;3.03;2.05;;;9.60;98.30;;;;;;5027420;28;20045;-70
2022/12/29 06:09:28;;;;;;;3.83;2.33;;;9.50;98.50;;;;;;5027272;28;20555;-70
2022/12/29 06:11:54;;;;;;;3.53;2.35;;;9.50;98.90;;;;;;5026445;28;20045;-69
2022/12/29 06:14:20;;;;;;;3.45;2.33;;;9.50;99.20;;;;;;5025243;28;20056;-69
2022/12/29 06:16:45;;;;;;;4.15;2.40;;;9.40;99.30;;;;;;5025553;28;20041;-70
2022/12/29 06:19:11;;;;;;;7.75;2.95;;;9.40;99.50;;;;;;5031353;28;20041;-69
2022/12/29 06:21:37;;;;;;;4.28;2.20;;;9.30;99.60;;;;;;5030672;28;20063;-69
2022/12/29 06:24:03;;;;;;;3.35;2.53;;;9.30;99.90;;;;;;5026382;28;20040;-68
2022/12/29 06:26:29;;;;;;;3.45;2.30;;;9.40;99.90;;;;;;5029435;28;20120;-69
2022/12/29 06:28:55;;;;;;;4.13;2.47;;;9.30;99.80;;;;;;5030182;28;20124;-69
2022/12/29 06:31:20;;;;;;;7.47;2.80;;;9.30;99.80;;;;;;5026453;28;20146;-69
2022/12/29 06:33:46;;;;;;;3.78;2.58;;;9.30;99.90;;;;;;5028663;28;20030;-70
2022/12/29 06:36:11;;;;;;;4.93;3.13;;;9.20;99.90;;;;;;5024802;28;20040;-70
2022/12/29 06:38:37;;;;;;;5.93;3.30;;;9.30;99.90;;;;;;5027075;28;20040;-69
2022/12/29 06:41:02;;;;;;;4.18;2.65;;;9.30;99.70;;;;;;5028487;28;20405;-69
2022/12/29 06:43:28;;;;;;;3.33;2.63;;;9.30;99.70;;;;;;5027474;28;20120;-72
2022/12/29 06:45:53;;;;;;;3.42;2.67;;;9.30;99.80;;;;;;5027623;28;20038;-70
2022/12/29 06:48:19;;;;;;;5.63;2.67;;;9.30;99.80;;;;;;5030852;28;20108;-69
2022/12/29 06:50:44;;;;;;;5.22;3.17;;;9.40;99.40;;;;;;5028414;28;20489;-70
2022/12/29 06:53:10;;;;;;;5.15;2.92;;;9.50;99.00;;;;;;5027170;28;20038;-73
2022/12/29 06:55:35;;;;;;;4.72;3.15;;;9.50;98.80;;;;;;5026520;28;20048;-69
2022/12/29 06:58:01;;;;;;;3.47;2.72;;;9.40;98.70;;;;;;5030666;28;20052;-69
2022/12/29 07:00:26;;;;;;;4.07;2.53;;;9.50;98.50;;;;;;5028922;28;20079;-69
2022/12/29 07:02:54;;;;;;;2.90;2.13;;;9.50;98.20;;;;;;5030555;28;20048;-70
2022/12/29 07:05:19;;;;;;;3.85;2.20;;;9.40;98.50;;;;;;5019192;28;20030;-70
2022/12/29 07:07:45;;;;;;;3.70;2.00;;;9.50;98.60;;;;;;5029207;28;20386;-70
2022/12/29 07:10:10;;;;;;;3.83;2.05;;;9.30;98.70;;;;;;5029202;28;20045;-69
2022/12/29 07:12:36;;;;;;;4.07;2.67;;;9.30;99.10;;;;;;5026129;28;20112;-69
2022/12/29 07:15:01;;;;;;;4.85;2.50;;;9.30;99.20;;;;;;5030500;28;20037;-68
2022/12/29 07:17:27;;;;;;;6.18;2.70;;;9.30;99.30;;;;;;5025839;28;20487;-70
2022/12/29 07:19:52;;;;;;;4.57;2.75;;;9.30;99.40;;;;;;5026620;28;20484;-70
2022/12/29 07:22:18;;;;;;;6.20;2.67;;;9.30;99.60;;;;;;5030366;28;20053;-70
2022/12/29 07:24:43;;;;;;;4.60;2.53;;;9.30;99.70;;;;;;5030702;28;20112;-71
2022/12/29 07:27:09;;;;;;;3.70;2.08;;;9.30;99.70;;;;;;5023249;28;20395;-71
2022/12/29 07:29:37;;;;;;;4.07;2.15;;;9.20;99.80;;;;;;5028038;28;20160;-70
2022/12/29 07:32:02;;;;;;;4.13;1.67;;;9.20;99.80;;;;;;5028259;28;20438;-69
2022/12/29 07:34:28;;;;;;;3.88;2.00;;;9.20;99.80;;;;;;5018883;28;20044;-70
2022/12/29 07:36:53;;;;;;;3.63;2.00;;;9.30;99.70;;;;;;5029790;28;20037;-69
2022/12/29 07:39:19;;;;;;;3.60;1.92;;;9.30;99.70;;;;;;5027161;28;20025;-69
2022/12/29 07:41:44;;;;;;;4.60;1.55;;;9.50;98.90;;;;;;5021184;28;20041;-69
2022/12/29 07:44:11;;;;;;;5.28;1.95;;;9.50;98.60;;;;;;5024954;28;20453;-70
2022/12/29 07:46:36;;;;;;;2.53;1.70;;;9.40;99.00;;;;;;5027929;28;20377;-69
2022/12/29 07:49:01;;;;;;;5.15;2.65;;;9.40;99.00;;;;;;5023123;28;20052;-70
2022/12/29 07:51:27;;;;;;;4.47;1.80;;;9.30;99.20;;;;;;5023016;28;20406;-69
2022/12/29 07:53:52;;;;;;;2.85;1.40;;;9.30;99.30;;;;;;5026466;28;20038;-69
2022/12/29 07:56:18;;;;;;;3.10;1.52;;;9.30;99.20;;;;;;5020163;28;20068;-70
2022/12/29 07:58:43;;;;;;;2.92;1.40;;;9.20;99.20;;;;;;5026961;28;20504;-70
2022/12/29 08:01:09;;;;;;;2.28;1.35;;;9.20;99.00;;;;;;5024784;28;20109;-70
2022/12/29 08:03:36;;;;;;;3.50;1.20;;;9.20;98.90;;;;;;5026365;28;20042;-69
2022/12/29 08:06:01;;;;;;;2.05;0.90;;;9.20;98.60;;;;;;5027648;28;20068;-69
2022/12/29 08:08:27;;;;;;;1.48;1.10;;;9.20;98.10;;;;;;5017575;28;20045;-69
2022/12/29 08:10:52;;;;;;;3.45;0.95;;;9.10;98.40;;;;;;5029202;28;20041;-69
2022/12/29 08:13:18;;;;;;;2.33;0.85;;;9.00;98.50;;;;;;5017509;28;20042;-71
2022/12/29 08:15:43;;;;;;;1.35;0.90;;;8.90;98.50;;;;;;5027419;28;20034;-70
2022/12/29 08:18:09;;;;;;;2.35;1.02;;;8.90;98.60;;;;;;5026982;28;20410;-69
2022/12/29 08:20:34;;;;;;;2.65;0.90;;;8.80;98.50;;;;;;5028951;28;20137;-69
2022/12/29 08:22:59;;;;;;;4.80;0.85;;;8.90;98.50;;;;;;5015246;28;20053;-70
2022/12/29 08:25:25;;;;;;;3.10;0.90;;;8.90;98.40;;;;;;5021334;28;20151;-69
2022/12/29 08:27:50;;;;;;;1.50;0.70;;;9.00;98.10;;;;;;5026166;28;20033;-70
2022/12/29 08:30:16;;;;;;;2.45;0.95;;;9.00;98.00;;;;;;5027253;28;20489;-71
2022/12/29 08:32:41;;;;;;;2.90;0.80;;;9.00;98.10;;;;;;5025348;28;20041;-70
2022/12/29 08:35:07;;;;;;;1.75;0.90;;;9.00;97.90;;;;;;5019609;28;20060;-70
2022/12/29 08:37:33;;;;;;;4.43;0.75;;;9.10;97.20;;;;;;5022226;28;20032;-70
2022/12/29 08:40:03;;;;;;;1.02;0.75;;;9.00;97.30;;;;;;5023595;28;20051;-69
2022/12/29 08:42:30;;;;;;;3.30;0.95;;;9.00;97.10;;;;;;5024689;28;20030;-69
2022/12/29 08:44:57;;;;;;;5.07;0.60;;;9.00;97.40;;;;;;5024122;28;20057;-69
2022/12/29 08:47:22;;;;;;;1.05;0.52;;;8.90;97.10;;;;;;5028872;28;20021;-68
2022/12/29 08:49:48;;;;;;;4.07;1.02;;;8.90;96.90;;;;;;5028070;28;20468;-69
2022/12/29 08:52:14;;;;;;;2.38;0.73;;;9.00;96.00;;;;;;5021040;28;20458;-70
2022/12/29 08:54:39;;;;;;;3.15;0.60;;;9.00;96.10;;;;;;5024787;28;20087;-72
2022/12/29 08:57:05;;;;;;;3.92;0.70;;;9.00;95.90;;;;;;5028338;28;20041;-69
2022/12/29 08:59:30;;;;;;;2.15;0.60;;;9.00;95.70;;;;;;5017867;28;20033;-68
2022/12/29 09:01:55;;;;;;;5.03;0.70;;;8.80;96.10;;;;;;5025680;28;20044;-69
2022/12/29 09:04:23;;;;;;;4.93;1.00;;;8.80;95.80;;;;;;5024779;28;20041;-68
2022/12/29 09:06:48;;;;;;;2.28;0.82;;;8.80;95.90;;;;;;5028147;28;20026;-67
2022/12/29 09:09:14;;;;;;;2.53;0.80;;;8.90;95.00;;;;;;5024195;28;20046;-68
2022/12/29 09:11:41;;;;;;;4.07;1.27;;;8.90;94.80;;;;;;5021936;28;23957;-67
2022/12/29 09:14:06;;;;;;;4.38;0.70;;;8.90;94.70;;;;;;5024952;28;20386;-68
2022/12/29 09:16:32;;;;;;;5.50;0.82;;;9.00;94.00;;;;;;5010990;28;20045;-69
2022/12/29 09:18:58;;;;;;;5.85;0.80;;;9.00;94.10;;;;;;5017118;28;20444;-68
2022/12/29 09:21:23;;;;;;;4.15;0.63;;;9.00;94.30;;;;;;5019298;28;20057;-70
2022/12/29 09:23:49;;;;;;;2.28;0.60;;;9.00;94.10;;;;;;5024362;28;20041;-68
2022/12/29 09:26:14;;;;;;;4.35;0.75;;;9.00;94.80;;;;;;5031193;28;20025;-68
2022/12/29 09:28:40;;;;;;;1.80;0.52;;;9.10;94.30;;;;;;5024286;28;20033;-68
2022/12/29 09:31:05;;;;;;;4.85;1.08;;;9.20;94.10;;;;;;5024208;28;20041;-67
2022/12/29 09:33:33;;;;;;;3.17;0.70;;;9.20;94.00;;;;;;5013161;28;20042;-68
2022/12/29 09:35:58;;;;;;;3.80;0.73;;;9.30;93.50;;;;;;5027848;28;20112;-68
2022/12/29 09:38:26;;;;;;;3.72;0.77;;;9.30;93.60;;;;;;5029876;28;20104;-67
2022/12/29 09:41:10;;;;;;;2.95;0.70;;;9.40;93.80;;;;;;5024045;28;20056;-69
2022/12/29 09:43:42;;;;;;;6.05;0.80;;;9.40;93.80;;;;;;5022644;28;20021;-68
2022/12/29 09:46:34;;;;;;;3.95;0.95;;;9.40;93.50;;;;;;5025859;28;20057;-68
2022/12/29 09:49:17;;;;;;;5.72;0.98;;;9.40;93.50;;;;;;5028193;28;20488;-68
2022/12/29 09:51:47;;;;;;;1.92;0.70;;;9.40;93.70;;;;;;5025445;28;20033;-72
2022/12/29 09:54:45;;;;;;;3.85;1.10;;;9.50;93.40;;;;;;5027765;28;20047;-68
2022/12/29 09:57:17;;;;;;;3.15;1.00;;;9.70;92.70;;;;;;5022749;28;20034;-70
2022/12/29 09:59:44;;;;;;;3.45;0.93;;;9.80;93.00;;;;;;5027924;28;20038;-71
2022/12/29 10:02:42;;;;;;;5.00;1.20;;;9.80;93.10;;;;;;5024660;28;20351;-70
2022/12/29 10:05:42;;;;;;;6.78;0.90;;;9.60;93.20;;;;;;5030870;28;20064;-69
2022/12/29 10:08:22;;;;;;;3.63;1.05;;;9.60;93.00;;;;;;5027258;28;20030;-69
2022/12/29 10:11:06;;;;;;;3.75;0.93;;;9.60;92.90;;;;;;5030623;28;20088;-69
2022/12/29 10:13:37;;;;;;;3.83;0.80;;;9.80;92.10;;;;;;5031566;28;20057;-69
2022/12/29 10:16:14;;;;;;;;;;;9.80;92.00;;;;;;5034320;28;20022;-69
2022/12/29 10:18:49;;;;;;;4.22;0.80;;;9.90;90.80;;;;;;5030425;28;19920;-69
2022/12/29 10:21:42;;;;;;;4.93;1.35;;;10.00;91.00;;;;;;5023462;28;20053;-68
2022/12/29 10:24:12;;;;;;;4.97;0.88;;;9.90;91.40;;;;;;5026066;28;20385;-68
2022/12/29 10:26:41;;;;;;;4.32;0.88;;;9.90;91.40;;;;;;5033426;28;20112;-68
2022/12/29 10:29:17;;;;;;;6.13;1.00;;;9.90;90.70;;;;;;5033183;28;20080;-69
2022/12/29 10:31:50;;;;;;;5.03;0.80;;;9.90;89.80;;;;;;5033110;28;20033;-70
2022/12/29 10:34:44;;;;;;;3.85;1.17;;;9.70;90.90;;;;;;5030267;28;20374;-70
2022/12/29 10:37:17;;;;;;;7.97;1.17;;;9.70;90.60;;;;;;5031906;28;20072;-68
2022/12/29 10:39:50;;;;;;;4.88;1.20;;;9.70;91.40;;;;;;5027794;28;20794;-69
2022/12/29 10:42:40;;;;;;;4.93;0.90;;;9.60;92.00;;;;;;5033859;28;20118;-69
2022/12/29 10:45:11;;;;;;;3.75;1.00;;;9.40;91.80;;;;;;5031527;28;20049;-68
2022/12/29 10:47:50;;;;;;;4.68;0.98;;;9.20;92.70;;;;;;5032560;28;20103;-68
2022/12/29 10:50:16;;;;;;;4.25;0.75;;;9.20;91.70;;;;;;5030336;28;20433;-69
2022/12/29 10:52:41;;;;;;;3.45;0.90;;;9.20;91.70;;;;;;5031540;28;20033;-69
2022/12/29 10:55:18;;;;;;;6.63;1.15;;;9.20;92.40;;;;;;5026152;28;20458;-69
2022/12/29 10:57:45;;;;;;;5.85;1.13;;;9.30;91.30;;;;;;5033349;28;20083;-68
2022/12/29 11:00:16;;;;;;;3.67;0.95;;;9.40;92.00;;;;;;5031884;28;20036;-68
2022/12/29 11:02:50;;;;;;;3.80;0.90;;;9.50;91.00;;;;;;5027005;28;20449;-69
2022/12/29 11:05:18;;;;;;;2.05;0.70;;;9.50;91.30;;;;;;5029275;28;20025;-68
2022/12/29 11:07:46;;;;;;;3.42;0.80;;;9.40;92.10;;;;;;5025217;28;20033;-69
2022/12/29 11:10:18;;;;;;;4.55;0.95;;;9.30;91.80;;;;;;5028646;28;20038;-68
2022/12/29 11:12:57;;;;;;;3.50;0.80;;;9.20;92.50;;;;;;5031579;28;20048;-69
2022/12/29 11:15:22;;;;;;;8.23;1.15;;;9.10;93.20;;;;;;5022933;28;20112;-69
2022/12/29 11:17:53;;;;;;;4.50;0.82;;;9.00;94.00;;;;;;5028373;28;20207;-71
2022/12/29 11:20:29;;;;;;;;;;;8.90;94.00;;;;;;5029667;28;20030;-69
2022/12/29 11:22:55;;;;;;;7.95;0.70;;;8.90;93.50;;;;;;5030666;28;19981;-69
2022/12/29 11:25:21;;;;;;;2.22;0.50;;;8.90;93.90;;;;;;5029166;28;20037;-68
2022/12/29 11:27:59;;;;;;;6.35;0.88;;;8.90;94.00;;;;;;5032618;28;20038;-68
2022/12/29 11:30:28;;;;;;;3.30;0.70;;;8.90;93.80;;;;;;5033129;28;20041;-69
2022/12/29 11:32:56;;;;;;;4.03;0.63;;;8.90;93.70;;;;;;5032353;28;20385;-69
2022/12/29 11:35:38;;;;;;;1.88;0.52;;;8.90;93.70;;;;;;5022818;28;20030;-69
2022/12/29 11:38:05;;;;;;;3.60;0.60;;;9.00;93.90;;;;;;5032218;28;20044;-68
2022/12/29 11:40:31;;;;;;;6.95;0.95;;;9.00;93.70;;;;;;5030907;28;20049;-68
2022/12/29 11:43:04;;;;;;;3.60;0.80;;;9.10;93.80;;;;;;5031212;28;20025;-68
2022/12/29 11:45:36;;;;;;;8.32;1.10;;;9.10;93.40;;;;;;5028503;28;20381;-69
2022/12/29 11:48:16;;;;;;;4.57;0.88;;;9.20;93.50;;;;;;5031945;28;20032;-70
2022/12/29 11:50:48;;;;;;;6.90;1.13;;;9.30;93.20;;;;;;5029975;28;20129;-69
2022/12/29 11:53:26;;;;;;;4.28;0.82;;;9.30;93.10;;;;;;5024128;28;20116;-69
2022/12/29 11:55:55;;;;;;;5.82;1.02;;;9.50;92.50;;;;;;5032131;28;20377;-69
2022/12/29 11:58:28;;;;;;;8.38;1.08;;;9.50;91.70;;;;;;5031400;28;20040;-68
2022/12/29 12:00:54;;;;;;;5.93;0.82;;;9.60;92.20;;;;;;5028779;28;20033;-69
2022/12/29 12:03:23;;;;;;;7.90;1.02;;;9.80;90.20;;;;;;5021906;28;20489;-68
2022/12/29 12:05:58;;;;;;;6.38;1.00;;;9.80;90.40;;;;;;5029599;28;20026;-69
2022/12/29 12:08:31;;;;;;;3.70;1.10;;;10.00;89.90;;;;;;5027437;28;20037;-69
2022/12/29 12:11:24;;;;;;;4.53;0.75;;;10.10;89.30;;;;;;5029724;28;20041;-69
2022/12/29 12:14:04;;;;;;;5.97;1.10;;;10.10;88.10;;;;;;5022233;28;20036;-68
2022/12/29 12:16:54;;;;;;;5.32;0.93;;;10.10;88.60;;;;;;5031317;28;20025;-68
2022/12/29 12:19:44;;;;;;;4.88;0.93;;;10.10;87.10;;;;;;5029671;28;20362;-68
2022/12/29 12:22:20;;;;;;;3.63;1.15;;;10.10;86.50;;;;;;5016089;28;20049;-69
2022/12/29 12:25:01;;;;;;;5.43;0.98;;;10.10;86.50;;;;;;5025690;28;20056;-69
2022/12/29 12:27:30;;;;;;;;;;;10.10;86.00;;;;;;5025957;28;20033;-69
2022/12/29 12:30:02;;;;;;;7.55;1.23;;;10.10;85.90;;;;;;5030089;28;19966;-68
2022/12/29 12:32:59;;;;;;;8.52;1.13;;;10.10;86.10;;;;;;5029134;28;20702;-68
2022/12/29 12:36:02;;;;;;;5.38;1.48;;;10.10;86.40;;;;;;5018049;28;20538;-68
2022/12/29 12:38:27;;;;;;;11.43;1.48;;;10.10;86.30;;;;;;5023327;28;20025;-71
2022/12/29 12:40:59;;;;;;;6.88;1.20;;;10.10;85.80;;;;;;5027779;28;20037;-69
2022/12/29 12:43:37;;;;;;;7.03;1.05;;;10.10;85.60;;;;;;5030963;28;20021;-69
2022/12/29 12:46:09;;;;;;;5.40;1.05;;;10.30;84.40;;;;;;5029303;28;20069;-68
2022/12/29 12:48:49;;;;;;;3.38;1.10;;;10.20;85.20;;;;;;5029744;28;20029;-68
2022/12/29 12:51:30;;;;;;;4.78;0.88;;;10.20;84.80;;;;;;5024065;28;20038;-70
2022/12/29 12:54:05;;;;;;;4.70;1.00;;;10.20;84.70;;;;;;5025995;28;20038;-68
2022/12/29 12:56:58;;;;;;;5.70;1.10;;;10.10;85.20;;;;;;5023174;28;20029;-68
2022/12/29 12:59:42;;;;;;;5.35;1.05;;;10.10;84.90;;;;;;5022408;28;20033;-68
2022/12/29 13:02:18;;;;;;;3.88;0.80;;;10.10;85.50;;;;;;5033054;28;20512;-69
2022/12/29 13:05:05;;;;;;;4.22;0.95;;;10.10;85.30;;;;;;5028273;28;20109;-69
2022/12/29 13:07:52;;;;;;;5.03;0.93;;;10.00;85.90;;;;;;5034368;28;20231;-69
2022/12/29 13:10:47;;;;;;;6.85;0.90;;;10.10;86.00;;;;;;5032046;28;20052;-69
2022/12/29 13:13:55;;;;;;;2.63;0.82;;;10.00;86.30;;;;;;5033121;28;20038;-68
2022/12/29 13:16:51;;;;;;;5.57;1.00;;;10.10;85.50;;;;;;5030339;28;20098;-68
2022/12/29 13:19:39;;;;;;;3.53;0.77;;;10.10;86.20;;;;;;5029121;28;20137;-69
2022/12/29 13:22:24;;;;;;;8.02;1.30;;;10.00;86.70;;;;;;5033025;28;20107;-70
2022/12/29 13:25:00;;;;;;;3.70;0.82;;;10.00;87.00;;;;;;5031140;28;20547;-69
2022/12/29 13:27:34;;;;;;;5.05;0.85;;;10.00;87.40;;;;;;5034967;28;20029;-69
2022/12/29 13:30:08;;;;;;;3.60;0.80;;;10.10;86.90;;;;;;5036798;28;20121;-69
2022/12/29 13:32:45;;;;;;;6.47;1.13;;;10.10;86.70;;;;;;5036361;28;20043;-68
2022/12/29 13:35:24;;;;;;;6.35;0.88;;;10.10;87.00;;;;;;5016598;28;20485;-69
2022/12/29 13:38:17;;;;;;;5.28;0.82;;;10.00;87.70;;;;;;5035037;28;20478;-69
2022/12/29 13:40:51;;;;;;;7.03;1.15;;;9.80;88.80;;;;;;5032567;28;20037;-69
2022/12/29 13:43:18;;;;;;;6.10;1.13;;;9.70;89.20;;;;;;5034323;28;20040;-68
2022/12/29 13:45:45;;;;;;;5.45;0.90;;;9.70;89.10;;;;;;5034240;28;20029;-70
2022/12/29 13:48:33;;;;;;;7.82;0.98;;;9.70;89.80;;;;;;5026127;28;20029;-69